Terminal Aerodrome Forecast
Issued by NWS

Current Version | Previous Version | Text Only | Print | Product List | Glossary On
Versions: 1 2 3 4 5 6 7 8 9 10 11 12
000
FTUS42 KMLB 251100
TAFSFB
TAF
KSFB 251123Z 2512/2612 34007KT P6SM SCT050
     FM251600 36010KT P6SM SCT035
     FM260000 01006KT P6SM SKC=

USA.gov is the U.S. government's official web portal to all federal, state and local government web resources and services.